createdAt,value
2019-05-26T00:02:00.217Z,42.07
2019-05-26T00:04:28.744Z,44.13
2019-05-26T00:06:57.189Z,44.33
2019-05-26T00:09:25.635Z,46.90
2019-05-26T00:11:54.085Z,49.00
2019-05-26T00:14:22.525Z,51.77
2019-05-26T00:16:50.976Z,51.40
2019-05-26T00:19:19.523Z,49.93
2019-05-26T00:21:47.969Z,54.33
2019-05-26T00:24:16.409Z,53.23
2019-05-26T00:26:44.854Z,55.77
2019-05-26T00:29:13.287Z,55.20
2019-05-26T00:31:41.766Z,54.77
2019-05-26T00:34:10.218Z,56.47
2019-05-26T00:36:38.757Z,55.90
2019-05-26T00:39:07.493Z,59.20
2019-05-26T00:41:35.934Z,56.70
2019-05-26T00:44:05.665Z,58.63
2019-05-26T00:46:34.125Z,60.53
2019-05-26T00:49:06.087Z,59.90
2019-05-26T00:51:34.892Z,58.83
2019-05-26T00:54:04.664Z,60.53
2019-05-26T00:56:33.392Z,60.87
2019-05-26T00:59:01.904Z,59.37
2019-05-26T01:01:30.385Z,56.57
2019-05-26T01:03:58.841Z,58.23
2019-05-26T01:06:27.306Z,59.17
2019-05-26T01:08:55.731Z,62.60
2019-05-26T01:11:24.196Z,58.43
2019-05-26T01:13:52.622Z,58.50
2019-05-26T01:16:21.089Z,61.17
2019-05-26T01:19:01.284Z,60.27
2019-05-26T01:21:30.001Z,58.73
2019-05-26T01:24:17.813Z,60.07
2019-05-26T01:26:46.292Z,56.63
2019-05-26T01:29:14.737Z,59.57
2019-05-26T01:31:43.199Z,56.30
2019-05-26T01:34:11.644Z,55.97
2019-05-26T01:36:59.397Z,56.97
2019-05-26T01:39:27.854Z,56.23
2019-05-26T01:41:56.317Z,56.00
2019-05-26T01:44:24.769Z,57.83
2019-05-26T01:46:53.294Z,53.33
2019-05-26T01:49:21.745Z,56.53
2019-05-26T01:51:50.215Z,53.80
2019-05-26T01:54:18.753Z,55.07
2019-05-26T01:56:47.186Z,55.03
2019-05-26T01:59:15.615Z,52.43
2019-05-26T02:01:44.406Z,55.07
2019-05-26T02:04:12.855Z,54.53
2019-05-26T02:06:41.323Z,52.83
2019-05-26T02:09:09.777Z,55.20
2019-05-26T02:11:38.248Z,53.20
2019-05-26T02:14:06.685Z,49.87
2019-05-26T02:16:54.453Z,53.07
2019-05-26T02:19:22.903Z,50.50
2019-05-26T02:22:10.706Z,51.30
2019-05-26T02:24:51.905Z,49.33
2019-05-26T02:27:20.393Z,48.53
2019-05-26T02:29:48.841Z,47.83
2019-05-26T02:32:17.358Z,49.03
2019-05-26T02:34:45.879Z,46.70
2019-05-26T02:37:14.345Z,48.57
2019-05-26T02:39:45.823Z,47.37
2019-05-26T02:42:14.281Z,46.83
2019-05-26T02:44:42.729Z,46.10
2019-05-26T02:47:11.187Z,49.80
2019-05-26T02:49:39.629Z,49.93
2019-05-26T02:52:08.078Z,48.90
2019-05-26T02:54:37.759Z,47.77
2019-05-26T02:57:09.638Z,48.63
2019-05-26T02:59:41.389Z,48.67
2019-05-26T03:02:09.863Z,48.70
2019-05-26T03:04:38.338Z,49.53
2019-05-26T03:07:06.804Z,51.27
2019-05-26T03:09:35.249Z,48.00
2019-05-26T03:12:03.726Z,47.60
2019-05-26T03:14:33.707Z,48.10
2019-05-26T03:17:02.171Z,47.97
2019-05-26T03:19:31.130Z,48.83
2019-05-26T03:21:59.605Z,50.33
2019-05-26T03:24:28.690Z,47.87
2019-05-26T03:26:57.264Z,48.00
2019-05-26T03:29:25.728Z,46.90
2019-05-26T03:31:54.286Z,44.63
2019-05-26T03:34:22.722Z,46.03
2019-05-26T03:36:51.166Z,46.83
2019-05-26T03:39:19.644Z,47.20
2019-05-26T03:41:48.095Z,44.53
2019-05-26T03:44:16.565Z,44.60
2019-05-26T03:46:45.048Z,44.87
2019-05-26T03:49:13.504Z,42.93
2019-05-26T03:51:41.941Z,43.43
2019-05-26T03:54:10.422Z,41.17
2019-05-26T03:56:38.865Z,43.50
2019-05-26T03:59:07.370Z,41.10
2019-05-26T04:01:35.837Z,43.30
2019-05-26T04:04:04.288Z,40.97
2019-05-26T04:06:32.740Z,42.37
2019-05-26T04:09:01.203Z,42.70
2019-05-26T04:11:29.645Z,42.47
2019-05-26T04:13:58.118Z,42.70
2019-05-26T04:16:26.582Z,42.23
2019-05-26T04:18:55.020Z,42.83
2019-05-26T04:21:23.476Z,41.47
2019-05-26T04:23:51.937Z,39.20
2019-05-26T04:26:20.376Z,38.13
2019-05-26T04:28:48.847Z,39.20
2019-05-26T04:31:17.311Z,38.27
2019-05-26T04:33:45.776Z,36.70
2019-05-26T04:36:14.225Z,36.37
2019-05-26T04:38:42.669Z,36.03
2019-05-26T04:41:11.158Z,37.30
2019-05-26T04:43:39.615Z,36.77
2019-05-26T04:46:08.055Z,36.00
2019-05-26T04:48:36.520Z,34.73
2019-05-26T04:51:05.052Z,33.50
2019-05-26T04:53:33.490Z,31.00
2019-05-26T04:56:01.959Z,32.83
2019-05-26T04:58:30.417Z,33.30
2019-05-26T05:00:58.877Z,34.00
2019-05-26T05:03:27.322Z,33.73
2019-05-26T05:05:55.779Z,32.97
2019-05-26T05:08:24.277Z,31.30
2019-05-26T05:10:52.707Z,32.03
2019-05-26T05:13:24.794Z,33.87
2019-05-26T05:15:51.486Z,34.63
2019-05-26T05:18:19.965Z,32.90
2019-05-26T05:20:48.439Z,33.37
2019-05-26T05:23:16.881Z,32.10
2019-05-26T05:25:45.333Z,32.07
2019-05-26T05:28:13.776Z,32.83
2019-05-26T05:30:42.256Z,31.07
2019-05-26T05:33:10.705Z,30.07
2019-05-26T05:35:39.184Z,29.80
2019-05-26T05:38:07.636Z,29.67
2019-05-26T05:40:36.077Z,29.47
2019-05-26T05:43:04.532Z,28.73
2019-05-26T05:45:32.985Z,27.70
2019-05-26T05:48:01.433Z,27.90
2019-05-26T05:50:29.890Z,27.37
2019-05-26T05:52:58.340Z,26.83
2019-05-26T05:55:27.235Z,25.90
2019-05-26T05:57:55.744Z,25.53
2019-05-26T06:00:26.612Z,25.90
2019-05-26T06:02:55.317Z,25.33
2019-05-26T06:05:23.801Z,25.53
2019-05-26T06:07:52.256Z,27.20
2019-05-26T06:10:23.116Z,25.80
2019-05-26T06:12:51.570Z,27.03
2019-05-26T06:15:21.360Z,26.67
2019-05-26T06:17:49.940Z,25.40
2019-05-26T06:20:18.401Z,24.93
2019-05-26T06:22:46.849Z,24.17
2019-05-26T06:25:15.305Z,24.63
2019-05-26T06:27:44.504Z,22.97
2019-05-26T06:30:13.098Z,23.20
2019-05-26T06:32:41.540Z,22.93
2019-05-26T06:35:10.004Z,22.97
2019-05-26T06:37:38.579Z,22.00
2019-05-26T06:40:07.111Z,20.70
2019-05-26T06:42:35.537Z,22.27
2019-05-26T06:45:04.825Z,21.20
2019-05-26T06:47:33.280Z,21.50
2019-05-26T06:50:01.751Z,22.77
2019-05-26T06:52:30.560Z,23.40
2019-05-26T06:54:59.357Z,20.53
2019-05-26T06:57:27.786Z,20.97
2019-05-26T06:59:56.242Z,21.27
2019-05-26T07:02:24.668Z,20.43
2019-05-26T07:04:53.110Z,21.53
2019-05-26T07:07:24.621Z,22.40
2019-05-26T07:09:53.178Z,21.53
2019-05-26T07:12:21.670Z,19.50
2019-05-26T07:14:50.153Z,20.57
2019-05-26T07:17:20.668Z,21.73
2019-05-26T07:19:48.764Z,21.13
2019-05-26T07:22:17.226Z,20.03
2019-05-26T07:24:45.678Z,19.57
2019-05-26T07:27:14.129Z,20.90
2019-05-26T07:29:42.838Z,20.47
2019-05-26T07:32:11.283Z,19.50
2019-05-26T07:34:40.039Z,20.93
2019-05-26T07:37:08.466Z,19.77
2019-05-26T07:39:36.909Z,19.40
2019-05-26T07:42:10.503Z,18.90
2019-05-26T07:44:35.521Z,19.10
2019-05-26T07:47:03.965Z,19.50
2019-05-26T07:49:32.400Z,18.93
2019-05-26T07:52:00.846Z,17.17
2019-05-26T07:54:29.576Z,16.60
2019-05-26T07:56:58.021Z,16.93
2019-05-26T07:59:26.442Z,16.83
2019-05-26T08:01:54.931Z,14.80
2019-05-26T08:04:23.378Z,12.77
2019-05-26T08:06:51.864Z,12.27
2019-05-26T08:09:20.306Z,12.50
2019-05-26T08:11:48.833Z,12.47
2019-05-26T08:14:17.452Z,11.53
2019-05-26T08:16:45.892Z,10.73
2019-05-26T08:19:14.327Z,10.70
2019-05-26T08:21:42.769Z,9.73
2019-05-26T08:24:11.221Z,9.13
2019-05-26T08:26:39.633Z,7.87
2019-05-26T08:29:08.080Z,7.63
2019-05-26T08:31:36.512Z,9.00
2019-05-26T08:34:04.967Z,9.67
2019-05-26T08:36:33.389Z,8.97
2019-05-26T08:39:01.942Z,8.60
2019-05-26T08:41:30.727Z,8.63
2019-05-26T08:43:59.161Z,8.20
2019-05-26T08:46:27.588Z,8.47
2019-05-26T08:48:56.086Z,9.40
2019-05-26T08:51:24.504Z,7.87
2019-05-26T08:53:52.929Z,8.50
2019-05-26T08:56:21.392Z,8.40
2019-05-26T08:58:49.830Z,8.53
2019-05-26T09:01:18.603Z,9.20
2019-05-26T09:03:47.292Z,8.53
2019-05-26T09:06:16.005Z,8.83
2019-05-26T09:13:34.977Z,8.80
2019-05-26T09:16:03.434Z,9.23
2019-05-26T09:18:31.882Z,8.83
2019-05-26T09:21:00.412Z,8.47
2019-05-26T09:23:28.856Z,9.20
2019-05-26T09:25:57.302Z,9.17
2019-05-26T09:28:25.758Z,8.27
2019-05-26T09:30:54.222Z,9.13
2019-05-26T09:33:22.744Z,8.23
2019-05-26T09:35:51.229Z,9.23
2019-05-26T09:38:19.686Z,9.93
2019-05-26T09:40:48.124Z,8.83
2019-05-26T09:43:16.915Z,8.97
2019-05-26T09:45:45.476Z,8.10
2019-05-26T09:48:14.242Z,9.67
2019-05-26T09:50:42.701Z,8.47
2019-05-26T09:53:11.523Z,8.57
2019-05-26T09:55:40.008Z,8.93
2019-05-26T09:58:08.445Z,9.07
2019-05-26T10:00:36.909Z,7.93
2019-05-26T10:03:05.672Z,8.27
2019-05-26T10:05:34.125Z,8.03
2019-05-26T10:08:02.838Z,7.23
2019-05-26T10:10:31.306Z,8.57
2019-05-26T10:12:59.756Z,7.80
2019-05-26T10:15:28.209Z,8.50
2019-05-26T10:17:56.662Z,6.73
2019-05-26T10:20:25.110Z,7.77
2019-05-26T10:22:53.815Z,7.00
2019-05-26T10:25:22.253Z,6.90
2019-05-26T10:27:50.757Z,6.63
2019-05-26T10:30:19.208Z,7.03
2019-05-26T10:32:47.746Z,6.70
2019-05-26T10:35:16.172Z,7.13
2019-05-26T10:37:44.664Z,6.80
2019-05-26T10:40:13.186Z,7.13
2019-05-26T10:42:41.646Z,6.67
2019-05-26T10:45:10.113Z,7.27
2019-05-26T10:47:38.572Z,6.93
2019-05-26T10:50:07.716Z,6.70
2019-05-26T10:52:36.188Z,6.40
2019-05-26T10:55:04.722Z,6.63
2019-05-26T10:57:33.164Z,6.90
2019-05-26T11:00:01.682Z,6.40
2019-05-26T11:02:30.337Z,6.77
2019-05-26T11:04:58.809Z,5.87
2019-05-26T11:07:27.312Z,6.47
2019-05-26T11:09:55.749Z,6.00
2019-05-26T11:12:24.198Z,5.47
2019-05-26T11:14:53.537Z,5.80
2019-05-26T11:17:21.993Z,5.40
2019-05-26T11:19:50.490Z,5.70
2019-05-26T11:22:19.077Z,5.43
2019-05-26T11:24:47.529Z,5.00
2019-05-26T11:27:16.050Z,4.87
2019-05-26T11:29:44.509Z,4.93
2019-05-26T11:32:12.957Z,5.23
2019-05-26T11:34:41.405Z,4.93
2019-05-26T11:37:10.205Z,4.90
2019-05-26T11:39:38.735Z,4.93
2019-05-26T11:42:13.489Z,4.80
2019-05-26T11:44:37.617Z,4.63
2019-05-26T11:47:06.077Z,5.20
2019-05-26T11:49:34.562Z,5.53
2019-05-26T11:52:03.287Z,5.47
2019-05-26T11:54:34.414Z,5.60
2019-05-26T11:57:01.938Z,5.53
2019-05-26T11:59:30.400Z,5.50
2019-05-26T12:01:58.842Z,5.17
2019-05-26T12:04:27.287Z,5.03
2019-05-26T12:06:55.745Z,5.00
2019-05-26T12:09:24.197Z,4.40
2019-05-26T12:11:52.672Z,4.20
2019-05-26T12:14:34.305Z,3.80
2019-05-26T12:16:51.532Z,3.30
2019-05-26T12:19:20.009Z,3.90
2019-05-26T12:21:48.461Z,3.80
2019-05-26T12:24:16.899Z,4.17
2019-05-26T12:26:45.413Z,3.80
2019-05-26T12:29:13.906Z,3.97
2019-05-26T12:31:42.421Z,3.17
2019-05-26T12:34:10.866Z,2.60
2019-05-26T12:36:39.629Z,3.03
2019-05-26T12:39:08.754Z,2.70
2019-05-26T12:41:37.570Z,2.57
2019-05-26T12:44:06.160Z,2.53
2019-05-26T12:46:34.617Z,2.23
2019-05-26T12:49:03.197Z,2.07
2019-05-26T12:51:31.663Z,2.00
2019-05-26T12:54:00.387Z,1.87
2019-05-26T12:56:28.889Z,1.80
2019-05-26T12:58:57.323Z,1.90
2019-05-26T13:01:25.792Z,1.87
2019-05-26T13:03:54.336Z,1.77
2019-05-26T13:06:22.785Z,2.00
2019-05-26T13:08:51.228Z,1.53
2019-05-26T13:11:22.674Z,1.60
2019-05-26T13:13:49.967Z,1.93
2019-05-26T13:16:20.544Z,1.40
2019-05-26T13:18:49.038Z,2.07
2019-05-26T13:21:17.500Z,1.77
2019-05-26T13:23:46.193Z,1.47
2019-05-26T13:26:21.873Z,1.93
2019-05-26T13:28:53.533Z,1.77
2019-05-26T13:31:21.974Z,1.20
2019-05-26T13:33:50.754Z,1.63
2019-05-26T13:36:19.215Z,1.53
2019-05-26T13:38:47.645Z,1.93
2019-05-26T13:41:16.072Z,1.30
2019-05-26T13:43:44.508Z,1.50
2019-05-26T13:46:12.965Z,1.60
2019-05-26T13:48:41.437Z,1.80
2019-05-26T13:51:09.911Z,2.17
2019-05-26T13:53:38.363Z,1.90
2019-05-26T13:56:06.806Z,1.93
2019-05-26T13:58:35.257Z,1.60
2019-05-26T14:01:03.708Z,1.40
2019-05-26T14:03:32.153Z,2.20
2019-05-26T14:06:00.628Z,2.23
2019-05-26T14:08:29.055Z,1.20
2019-05-26T14:10:57.510Z,1.30
2019-05-26T14:13:25.941Z,2.10
2019-05-26T14:15:55.352Z,3.03
2019-05-26T14:18:23.805Z,3.03
2019-05-26T14:20:52.270Z,2.53
2019-05-26T14:23:20.773Z,5.03
2019-05-26T14:25:49.237Z,3.00
2019-05-26T14:28:17.660Z,2.60
2019-05-26T14:30:46.405Z,2.50
2019-05-26T14:33:14.852Z,2.57
2019-05-26T14:35:43.324Z,2.40
2019-05-26T14:38:11.784Z,2.73
2019-05-26T14:40:40.207Z,1.90
2019-05-26T14:43:08.629Z,2.47
2019-05-26T14:45:51.954Z,2.07
2019-05-26T14:48:07.209Z,3.03
2019-05-26T14:50:35.654Z,2.50
2019-05-26T14:53:04.084Z,3.10
2019-05-26T14:55:32.508Z,2.73
2019-05-26T14:58:14.279Z,2.30
2019-05-26T15:00:31.404Z,2.30
2019-05-26T15:02:59.849Z,3.17
2019-05-26T15:05:28.716Z,2.73
2019-05-26T15:07:57.139Z,2.63
2019-05-26T15:10:25.579Z,2.43
2019-05-26T15:12:54.100Z,3.00
2019-05-26T15:15:22.585Z,2.20
2019-05-26T15:17:51.429Z,3.20
2019-05-26T15:20:19.923Z,3.37
2019-05-26T15:22:48.462Z,2.63
2019-05-26T15:25:16.901Z,2.97
2019-05-26T15:27:46.635Z,2.87
2019-05-26T15:30:15.406Z,2.37
2019-05-26T15:32:43.837Z,3.17
2019-05-26T15:35:12.375Z,2.77
2019-05-26T15:37:40.905Z,3.33
2019-05-26T15:40:09.930Z,3.03
2019-05-26T15:42:38.375Z,2.40
2019-05-26T15:45:07.142Z,2.50
2019-05-26T15:47:35.602Z,3.10
2019-05-26T15:50:04.604Z,2.70
2019-05-26T15:52:33.042Z,2.50
2019-05-26T15:55:01.531Z,2.77
2019-05-26T15:57:29.949Z,2.60
2019-05-26T15:59:58.414Z,2.40
2019-05-26T16:02:26.845Z,2.77
2019-05-26T16:04:58.695Z,2.97
2019-05-26T16:07:25.901Z,2.43
2019-05-26T16:09:54.347Z,2.37
2019-05-26T16:12:22.916Z,3.47
2019-05-26T16:14:51.382Z,3.10
2019-05-26T16:17:20.245Z,2.43
2019-05-26T16:19:48.684Z,2.77
2019-05-26T16:22:17.149Z,2.67
2019-05-26T16:24:45.624Z,3.07
2019-05-26T16:27:19.222Z,2.73
2019-05-26T16:29:46.716Z,2.33
2019-05-26T16:32:18.643Z,2.70
2019-05-26T16:34:45.305Z,2.80
2019-05-26T16:37:13.896Z,2.57
2019-05-26T16:39:42.330Z,2.20
2019-05-26T16:42:10.940Z,2.83
2019-05-26T16:44:39.795Z,3.17
2019-05-26T16:47:08.246Z,2.90
2019-05-26T16:49:36.693Z,2.43
2019-05-26T16:52:05.312Z,2.40
2019-05-26T16:54:33.748Z,2.73
2019-05-26T16:57:05.131Z,2.40
2019-05-26T16:59:34.268Z,3.10
2019-05-26T17:02:02.799Z,2.83
2019-05-26T17:04:31.241Z,3.30
2019-05-26T17:06:59.746Z,3.50
2019-05-26T17:09:28.327Z,2.87
2019-05-26T17:11:57.127Z,3.40
2019-05-26T17:14:25.785Z,3.30
2019-05-26T17:16:54.228Z,3.83
2019-05-26T17:19:22.712Z,3.37
2019-05-26T17:21:51.338Z,3.40
2019-05-26T17:24:20.120Z,3.17
2019-05-26T17:26:48.554Z,3.53
2019-05-26T17:29:17.027Z,3.30
2019-05-26T17:31:45.523Z,3.80
2019-05-26T17:34:13.965Z,3.27
2019-05-26T17:36:42.413Z,3.40
2019-05-26T17:39:10.889Z,3.80
2019-05-26T17:41:39.344Z,3.20
2019-05-26T17:44:07.880Z,3.10
2019-05-26T17:46:36.368Z,3.60
2019-05-26T17:49:04.806Z,3.10
2019-05-26T17:51:33.339Z,4.63
2019-05-26T17:54:01.874Z,3.77
2019-05-26T17:56:30.328Z,3.47
2019-05-26T17:58:58.782Z,4.00
2019-05-26T18:01:27.228Z,3.90
2019-05-26T18:03:55.653Z,3.40
2019-05-26T18:06:24.112Z,4.87
2019-05-26T18:08:52.573Z,3.67
2019-05-26T18:11:21.318Z,4.47
2019-05-26T18:13:49.760Z,5.20
2019-05-26T18:16:18.291Z,6.17
2019-05-26T18:18:46.837Z,7.00
2019-05-26T18:21:15.306Z,6.90
2019-05-26T18:23:55.526Z,7.37
2019-05-26T18:26:24.028Z,9.00
2019-05-26T18:28:52.492Z,7.60
2019-05-26T18:31:20.995Z,9.37
2019-05-26T18:33:49.474Z,9.70
2019-05-26T18:36:17.924Z,9.63
2019-05-26T18:38:46.382Z,11.53
2019-05-26T18:41:14.836Z,9.43
2019-05-26T18:43:43.586Z,10.90
2019-05-26T18:46:12.094Z,11.83
2019-05-26T18:48:40.576Z,12.33
2019-05-26T18:51:09.056Z,13.60
2019-05-26T18:53:37.531Z,12.17
2019-05-26T18:56:05.990Z,11.07
2019-05-26T18:58:34.450Z,12.00
2019-05-26T19:01:02.913Z,13.13
2019-05-26T19:03:31.362Z,12.50
2019-05-26T19:05:59.830Z,12.70
2019-05-26T19:08:28.309Z,11.33
2019-05-26T19:10:56.798Z,12.70
2019-05-26T19:13:25.280Z,12.47
2019-05-26T19:15:53.775Z,13.67
2019-05-26T19:18:22.614Z,14.27
2019-05-26T19:20:51.145Z,14.53
2019-05-26T19:23:19.602Z,15.13
2019-05-26T19:25:48.130Z,15.80
2019-05-26T19:28:16.636Z,17.67
2019-05-26T19:30:45.805Z,18.80
2019-05-26T19:33:14.654Z,20.30
2019-05-26T19:35:43.128Z,22.60
2019-05-26T19:38:11.663Z,21.10
2019-05-26T19:40:40.123Z,22.07
2019-05-26T19:43:08.553Z,21.17
2019-05-26T19:45:37.025Z,22.37
2019-05-26T19:48:05.561Z,20.63
2019-05-26T19:50:34.248Z,22.43
2019-05-26T19:53:02.934Z,21.03
2019-05-26T19:55:31.373Z,19.13
2019-05-26T19:57:59.819Z,18.30
2019-05-26T20:00:28.337Z,18.23
2019-05-26T20:02:56.785Z,14.40
2019-05-26T20:05:25.259Z,14.97
2019-05-26T20:07:53.786Z,12.97
2019-05-26T20:10:22.533Z,14.57
2019-05-26T20:12:51.215Z,14.17
2019-05-26T20:15:19.793Z,12.70
2019-05-26T20:17:48.274Z,13.67
2019-05-26T20:20:16.769Z,12.57
2019-05-26T20:22:45.232Z,11.97
2019-05-26T20:25:14.210Z,11.80
2019-05-26T20:27:42.697Z,12.70
2019-05-26T20:30:11.497Z,12.77
2019-05-26T20:32:40.353Z,13.30
2019-05-26T20:35:09.491Z,12.80
2019-05-26T20:37:37.956Z,13.03
2019-05-26T20:40:06.552Z,12.33
2019-05-26T20:42:35.167Z,12.03
2019-05-26T20:45:03.649Z,11.37
2019-05-26T20:47:32.103Z,10.63
2019-05-26T20:50:00.729Z,9.93
2019-05-26T20:52:29.210Z,8.97
2019-05-26T20:54:57.863Z,8.53
2019-05-26T20:57:26.378Z,8.37
2019-05-26T20:59:54.837Z,8.10
2019-05-26T21:02:23.304Z,7.80
2019-05-26T21:04:51.781Z,7.07
2019-05-26T21:07:20.320Z,7.67
2019-05-26T21:09:48.774Z,8.17
2019-05-26T21:12:17.450Z,7.97
2019-05-26T21:14:45.910Z,9.97
2019-05-26T21:17:14.366Z,10.53
2019-05-26T21:19:54.787Z,10.87
2019-05-26T21:22:23.562Z,12.00
2019-05-26T21:24:52.101Z,12.13
2019-05-26T21:27:23.658Z,12.63
2019-05-26T21:29:52.228Z,15.53
2019-05-26T21:32:20.744Z,15.57
2019-05-26T21:34:49.197Z,16.57
2019-05-26T21:37:17.688Z,16.73
2019-05-26T21:39:46.248Z,17.90
2019-05-26T21:42:16.105Z,19.83
2019-05-26T21:44:44.648Z,19.23
2019-05-26T21:47:13.140Z,19.57
2019-05-26T21:49:41.598Z,18.30
2019-05-26T21:52:10.059Z,16.37
2019-05-26T21:54:41.214Z,17.13
2019-05-26T21:57:09.002Z,16.97
2019-05-26T21:59:37.492Z,19.73
2019-05-26T22:02:06.029Z,18.17
2019-05-26T22:04:34.505Z,18.50
2019-05-26T22:07:03.151Z,21.30
2019-05-26T22:09:31.842Z,19.87
2019-05-26T22:12:00.288Z,15.20
2019-05-26T22:14:28.780Z,15.43
2019-05-26T22:16:57.232Z,15.47
2019-05-26T22:19:25.688Z,14.70
2019-05-26T22:21:54.129Z,14.63
2019-05-26T22:24:22.590Z,14.53
2019-05-26T22:26:51.131Z,16.00
2019-05-26T22:29:19.728Z,17.97
2019-05-26T22:31:48.521Z,16.63
2019-05-26T22:34:16.996Z,15.13
2019-05-26T22:36:45.446Z,13.53
2019-05-26T22:39:13.877Z,13.03
2019-05-26T22:41:42.314Z,12.00
2019-05-26T22:44:10.766Z,13.07
2019-05-26T22:46:39.192Z,11.73
2019-05-26T22:49:07.945Z,12.47
2019-05-26T22:51:36.408Z,11.57
2019-05-26T22:54:04.861Z,12.83
2019-05-26T22:56:33.311Z,12.93
2019-05-26T22:59:01.766Z,14.03
2019-05-26T23:01:30.216Z,15.03
2019-05-26T23:03:58.650Z,14.60
2019-05-26T23:06:27.110Z,16.70
2019-05-26T23:08:55.558Z,16.43
2019-05-26T23:11:43.337Z,14.60
2019-05-26T23:14:31.118Z,14.07
2019-05-26T23:16:59.573Z,14.30
2019-05-26T23:19:28.015Z,13.60
2019-05-26T23:21:56.453Z,14.27
2019-05-26T23:24:25.243Z,12.97
2019-05-26T23:26:53.741Z,12.03
2019-05-26T23:29:22.257Z,12.13
2019-05-26T23:31:50.817Z,11.77
2019-05-26T23:34:19.337Z,10.00
2019-05-26T23:36:47.817Z,10.10
2019-05-26T23:39:16.346Z,9.53
2019-05-26T23:41:44.848Z,10.40
2019-05-26T23:44:13.329Z,9.10
2019-05-26T23:46:41.836Z,9.03
2019-05-26T23:49:10.627Z,7.83
2019-05-26T23:51:39.068Z,7.90
2019-05-26T23:54:07.532Z,6.53
2019-05-26T23:56:35.965Z,6.73
2019-05-26T23:59:04.420Z,6.40
